createdAt,value
2022-09-27T00:03:55.754Z,98623.98
2022-09-27T00:09:00.266Z,98619.80
2022-09-27T00:14:04.717Z,98618.05
2022-09-27T00:19:12.490Z,98622.10
2022-09-27T00:24:18.969Z,98617.46
2022-09-27T00:29:22.303Z,98618.38
2022-09-27T00:34:26.436Z,98608.44
2022-09-27T00:39:29.745Z,98598.42
2022-09-27T00:44:38.998Z,98596.20
2022-09-27T00:49:42.785Z,98595.00
2022-09-27T00:54:50.476Z,98595.39
2022-09-27T01:00:19.140Z,98591.08
2022-09-27T01:05:26.337Z,98587.45
2022-09-27T01:10:41.219Z,98583.08
2022-09-27T01:16:02.205Z,98579.52
2022-09-27T01:21:13.849Z,98574.89
2022-09-27T01:26:20.131Z,98568.35
2022-09-27T01:31:59.693Z,98565.55
2022-09-27T01:37:17.030Z,98563.95
2022-09-27T01:42:24.335Z,98560.03
2022-09-27T01:47:50.686Z,98555.49
2022-09-27T01:52:59.935Z,98547.40
2022-09-27T01:58:21.686Z,98548.73
2022-09-27T02:03:37.472Z,98546.91
2022-09-27T02:08:53.699Z,98539.48
2022-09-27T02:14:11.854Z,98538.41
2022-09-27T02:19:33.905Z,98543.17
2022-09-27T02:25:04.966Z,98540.00
2022-09-27T02:30:13.631Z,98539.01
2022-09-27T02:35:28.384Z,98536.11
2022-09-27T02:40:34.939Z,98535.51
2022-09-27T02:45:55.000Z,98529.33
2022-09-27T02:51:27.057Z,98529.52
2022-09-27T02:56:45.624Z,98524.37
2022-09-27T03:02:14.454Z,98523.89
2022-09-27T03:07:18.464Z,98517.96
2022-09-27T03:12:26.280Z,98514.70
2022-09-27T03:17:29.588Z,98511.75
2022-09-27T03:22:33.208Z,98513.34
2022-09-27T03:27:36.517Z,98507.97
2022-09-27T03:32:44.112Z,98501.35
2022-09-27T03:37:47.643Z,98497.53
2022-09-27T03:42:51.363Z,98498.22
2022-09-27T03:47:55.186Z,98502.61
2022-09-27T03:52:58.499Z,98491.94
2022-09-27T03:58:02.799Z,98491.81
2022-09-27T04:03:11.364Z,98485.52
2022-09-27T04:08:14.784Z,98484.30
2022-09-27T04:13:18.193Z,98492.52
2022-09-27T04:18:21.502Z,98494.21
2022-09-27T04:23:29.139Z,98485.34
2022-09-27T04:28:33.760Z,98479.17
2022-09-27T04:33:37.174Z,98475.92
2022-09-27T04:38:40.692Z,98472.36
2022-09-27T04:43:43.892Z,98473.10
2022-09-27T04:48:50.081Z,98472.70
2022-09-27T04:53:53.908Z,98476.90
2022-09-27T04:58:57.204Z,98474.36
2022-09-27T05:04:00.415Z,98481.00
2022-09-27T05:09:03.828Z,98479.98
2022-09-27T05:14:07.137Z,98478.54
2022-09-27T05:19:10.398Z,98477.96
2022-09-27T05:24:13.963Z,98476.21
2022-09-27T05:29:18.092Z,98473.55
2022-09-27T05:34:21.509Z,98472.06
2022-09-27T05:39:24.818Z,98474.27
2022-09-27T05:44:28.026Z,98475.52
2022-09-27T05:49:32.565Z,98479.45
2022-09-27T05:54:35.774Z,98488.08
2022-09-27T05:59:39.086Z,98487.98
2022-09-27T06:04:42.357Z,98490.92
2022-09-27T06:09:45.746Z,98487.65
2022-09-27T06:14:49.017Z,98482.14
2022-09-27T06:19:52.226Z,98477.05
2022-09-27T06:24:55.439Z,98472.86
2022-09-27T06:29:58.947Z,98477.14
2022-09-27T06:35:05.434Z,98477.93
2022-09-27T06:40:09.623Z,98477.36
2022-09-27T06:45:13.181Z,98481.09
2022-09-27T06:50:17.924Z,98482.06
2022-09-27T06:55:21.441Z,98485.05
2022-09-27T07:00:24.651Z,98489.71
2022-09-27T07:05:31.543Z,98483.66
2022-09-27T07:10:37.946Z,98474.52
2022-09-27T07:15:42.160Z,98471.64
2022-09-27T07:20:45.368Z,98474.17
2022-09-27T07:25:48.576Z,98482.77
2022-09-27T07:30:56.368Z,98488.35
2022-09-27T07:35:59.909Z,98491.92
2022-09-27T07:41:12.689Z,98493.35
2022-09-27T07:46:15.997Z,98491.15
2022-09-27T07:51:19.260Z,98487.80
2022-09-27T07:56:22.570Z,98489.27
2022-09-27T08:01:26.229Z,98493.16
2022-09-27T08:06:30.115Z,98503.73
2022-09-27T08:11:33.341Z,98506.55
2022-09-27T08:16:36.657Z,98509.22
2022-09-27T08:21:40.047Z,98513.30
2022-09-27T08:26:43.259Z,98513.89
2022-09-27T08:31:46.720Z,98514.38
2022-09-27T08:36:50.288Z,98513.45
2022-09-27T08:42:18.993Z,98513.13
2022-09-27T08:47:40.839Z,98510.94
2022-09-27T08:52:51.507Z,98511.09
2022-09-27T08:57:58.265Z,98502.96
2022-09-27T09:03:03.082Z,98500.88
2022-09-27T09:08:37.448Z,98492.73
2022-09-27T09:14:13.696Z,98485.55
2022-09-27T09:19:39.111Z,98484.14
2022-09-27T09:25:00.138Z,98478.86
2022-09-27T09:30:18.806Z,98489.33
2022-09-27T09:35:35.225Z,98489.65
2022-09-27T09:40:48.212Z,98487.98
2022-09-27T09:46:03.719Z,98488.72
2022-09-27T09:51:12.702Z,98490.61
2022-09-27T09:56:33.248Z,98492.23
2022-09-27T10:01:48.575Z,98484.89
2022-09-27T10:06:52.956Z,98488.39
2022-09-27T10:11:56.983Z,98486.10
2022-09-27T10:17:03.974Z,98484.00
2022-09-27T10:22:23.154Z,98481.50
2022-09-27T10:27:27.182Z,98475.52
2022-09-27T10:32:37.253Z,98474.33
2022-09-27T10:37:40.764Z,98470.70
2022-09-27T10:42:45.409Z,98469.66
2022-09-27T10:47:49.233Z,98472.27
2022-09-27T10:53:06.162Z,98469.66
2022-09-27T10:58:21.153Z,98466.55
2022-09-27T11:03:26.659Z,98468.42
2022-09-27T11:08:34.149Z,98469.27
2022-09-27T11:13:38.144Z,98467.72
2022-09-27T11:18:50.773Z,98465.08
2022-09-27T11:24:22.243Z,98462.33
2022-09-27T11:30:00.574Z,98458.46
2022-09-27T11:35:27.025Z,98448.45
2022-09-27T11:40:54.656Z,98440.70
2022-09-27T11:46:16.720Z,98435.92
2022-09-27T11:51:37.376Z,98430.63
2022-09-27T11:57:09.769Z,98426.29
2022-09-27T12:02:33.728Z,98430.38
2022-09-27T12:08:26.740Z,98433.02
2022-09-27T12:13:57.720Z,98428.08
2022-09-27T12:19:03.795Z,98424.17
2022-09-27T12:24:07.394Z,98421.38
2022-09-27T12:29:31.899Z,98411.92
2022-09-27T12:34:46.374Z,98409.09
2022-09-27T12:39:55.957Z,98403.15
2022-09-27T12:44:59.751Z,98404.41
2022-09-27T12:50:13.098Z,98402.65
2022-09-27T12:55:25.316Z,98394.84
2022-09-27T13:00:40.982Z,98394.87
2022-09-27T13:06:12.797Z,98396.53
2022-09-27T13:11:52.971Z,98396.95
2022-09-27T13:16:56.181Z,98393.63
2022-09-27T13:21:59.800Z,98388.14
2022-09-27T13:27:03.518Z,98381.11
2022-09-27T13:32:21.575Z,98385.40
2022-09-27T13:37:45.699Z,98379.86
2022-09-27T13:43:10.591Z,98376.69
2022-09-27T13:48:18.102Z,98370.41
2022-09-27T13:53:40.261Z,98365.40
2022-09-27T13:59:00.257Z,98363.98
2022-09-27T14:04:17.803Z,98365.22
2022-09-27T14:09:29.711Z,98362.30
2022-09-27T14:14:35.023Z,98358.94
2022-09-27T14:19:41.866Z,98358.16
2022-09-27T14:24:50.399Z,98350.42
2022-09-27T14:30:01.023Z,98351.98
2022-09-27T14:35:31.225Z,98344.77
2022-09-27T14:40:54.636Z,98342.08
2022-09-27T14:46:00.266Z,98341.56
2022-09-27T14:51:14.035Z,98339.98
2022-09-27T14:56:23.068Z,98334.01
2022-09-27T15:01:26.380Z,98331.98
2022-09-27T15:06:30.304Z,98327.90
2022-09-27T15:11:38.761Z,98341.56
2022-09-27T15:16:43.140Z,98349.40
2022-09-27T15:21:47.536Z,98355.55
2022-09-27T15:26:51.506Z,98357.42
2022-09-27T15:32:07.725Z,98359.77
2022-09-27T15:37:35.841Z,98359.37
2022-09-27T15:43:01.830Z,98359.12
2022-09-27T15:48:15.847Z,98358.65
2022-09-27T15:53:48.542Z,98356.98
2022-09-27T15:58:51.954Z,98344.04
2022-09-27T16:03:55.264Z,98337.66
2022-09-27T16:08:58.477Z,98325.98
2022-09-27T16:14:01.685Z,98323.81
2022-09-27T16:19:04.891Z,98316.09
2022-09-27T16:24:08.100Z,98306.52
2022-09-27T16:29:14.196Z,98303.35
2022-09-27T16:34:17.751Z,98305.48
2022-09-27T16:39:21.000Z,98300.85
2022-09-27T16:44:24.417Z,98301.94
2022-09-27T16:49:46.361Z,98298.21
2022-09-27T16:54:49.673Z,98298.59
2022-09-27T16:59:52.883Z,98289.45
2022-09-27T17:04:56.298Z,98283.86
2022-09-27T17:09:59.605Z,98281.29
2022-09-27T17:15:02.926Z,98274.03
2022-09-27T17:20:06.637Z,98271.48
2022-09-27T17:25:10.049Z,98269.22
2022-09-27T17:30:14.184Z,98268.71
2022-09-27T17:35:17.493Z,98267.70
2022-09-27T17:40:20.854Z,98264.20
2022-09-27T17:45:24.217Z,98262.50
2022-09-27T17:50:28.959Z,98262.97
2022-09-27T17:55:32.819Z,98264.99
2022-09-27T18:00:36.296Z,98272.70
2022-09-27T18:05:39.513Z,98267.12
2022-09-27T18:10:44.045Z,98268.54
2022-09-27T18:15:55.404Z,98274.05
2022-09-27T18:21:03.978Z,98276.88
2022-09-27T18:26:10.054Z,98279.16
2022-09-27T18:31:16.265Z,98281.79
2022-09-27T18:36:21.795Z,98277.95
2022-09-27T18:41:28.122Z,98283.77
2022-09-27T18:46:37.090Z,98280.34
2022-09-27T18:51:46.322Z,98277.52
2022-09-27T18:56:52.488Z,98283.06
2022-09-27T19:01:55.775Z,98282.87
2022-09-27T19:06:59.990Z,98279.55
2022-09-27T19:12:04.426Z,98281.28
2022-09-27T19:17:08.250Z,98280.43
2022-09-27T19:22:12.684Z,98271.73
2022-09-27T19:27:15.893Z,98270.97
2022-09-27T19:32:19.206Z,98268.41
2022-09-27T19:37:22.414Z,98262.19
2022-09-27T19:42:25.624Z,98263.91
2022-09-27T19:47:28.934Z,98268.00
2022-09-27T19:52:33.677Z,98271.36
2022-09-27T19:57:36.887Z,98284.02
2022-09-27T20:02:40.467Z,98289.91
2022-09-27T20:07:48.161Z,98290.94
2022-09-27T20:12:52.114Z,98287.73
2022-09-27T20:17:56.171Z,98278.52
2022-09-27T20:23:00.709Z,98272.89
2022-09-27T20:28:04.123Z,98266.81
2022-09-27T20:33:26.172Z,98269.86
2022-09-27T20:38:29.585Z,98266.11
2022-09-27T20:43:32.897Z,98272.23
2022-09-27T20:48:36.208Z,98273.95
2022-09-27T20:53:39.926Z,98278.23
2022-09-27T20:58:43.648Z,98280.32
2022-09-27T21:03:47.165Z,98276.27
2022-09-27T21:08:51.908Z,98271.30
2022-09-27T21:13:56.244Z,98266.48
2022-09-27T21:18:59.450Z,98256.34
2022-09-27T21:24:03.287Z,98260.91
2022-09-27T21:29:09.203Z,98253.08
2022-09-27T21:34:12.306Z,98250.79
2022-09-27T21:39:17.186Z,98246.29
2022-09-27T21:44:20.510Z,98243.14
2022-09-27T21:49:23.821Z,98237.69
2022-09-27T21:54:27.030Z,98240.38
2022-09-27T21:59:30.344Z,98241.21
2022-09-27T22:04:33.551Z,98235.77
2022-09-27T22:09:36.861Z,98228.48
2022-09-27T22:14:40.276Z,98233.35
2022-09-27T22:19:43.583Z,98227.37
2022-09-27T22:24:46.691Z,98224.11
2022-09-27T22:29:50.101Z,98222.30
2022-09-27T22:34:53.825Z,98217.55
2022-09-27T22:39:57.442Z,98211.42
2022-09-27T22:45:00.648Z,98207.86
2022-09-27T22:50:04.067Z,98197.67
2022-09-27T22:55:07.885Z,98192.85
2022-09-27T23:00:12.043Z,98183.92
2022-09-27T23:05:15.222Z,98175.08
2022-09-27T23:10:20.479Z,98168.49
2022-09-27T23:15:23.789Z,98159.52
2022-09-27T23:20:27.715Z,98162.42
2022-09-27T23:25:31.027Z,98154.08
2022-09-27T23:30:34.543Z,98149.02
2022-09-27T23:35:37.764Z,98144.07
2022-09-27T23:40:41.043Z,98142.86
2022-09-27T23:45:44.372Z,98139.98
2022-09-27T23:50:48.606Z,98135.77
2022-09-27T23:56:02.860Z,98127.81
